METAR Data
IDs: Format: Raw Decoded Include TAF

Data at: 1310 UTC 09 Dec 2019

KGCY 091255Z AUTO VRB06G12KT 10SM FEW065 BKN075 BKN100 11/07 A2996 RMK A01
KGCY 091235Z AUTO 18008G14KT 150V240 10SM FEW060 SCT075 BKN100 11/07 A2996 RMK A01
KGCY 091215Z AUTO VRB05KT 10SM FEW060 BKN100 BKN120 11/07 A2996 RMK A01
KGCY 091155Z AUTO 20006G12KT 10SM BKN060 BKN100 11/07 A2997 RMK A01
KGCY 091135Z AUTO 18007G14KT 10SM BKN060 OVC070 11/07 A2997 RMK A01
KGCY 091115Z AUTO 19007G18KT 170V230 10SM BKN060 OVC070 11/07 A2998 RMK A01
KGCY 091055Z AUTO 19007KT 150V220 10SM BKN060 BKN070 OVC090 11/07 A2997 RMK A01
KGCY 091035Z AUTO VRB05G10KT 10SM BKN055 OVC070 11/07 A2997 RMK A01
KGCY 091015Z AUTO VRB06KT 10SM OVC050 10/07 A2999 RMK A01
KGCY 090955Z AUTO 17006G13KT 10SM FEW031 BKN055 OVC065 09/07 A2999 RMK A01 P0002
KGCY 090935Z AUTO 20008KT 140V220 6SM HZ SCT030 BKN055 OVC085 10/06 A3001 RMK A01
KGCY 090915Z AUTO 19006KT 10SM FEW032 SCT050 BKN070 10/06 A3001 RMK A01
KGCY 090855Z AUTO 17011G20KT 140V210 8SM FEW033 OVC055 11/05 A3001 RMK A01
KGCY 090835Z AUTO 19011G18KT 10SM BKN060 BKN080 BKN090 12/04 A3002 RMK A01
KGCY 090815Z AUTO VRB06KT 10SM SCT065 BKN120 11/03 A3002 RMK A01
KGCY 090755Z AUTO VRB06G16KT 10SM BKN065 BKN075 BKN120 11/03 A3003 RMK A01
KGCY 090735Z AUTO 18007KT 140V200 10SM BKN060 OVC070 12/03 A3005 RMK A01
KGCY 090715Z AUTO 19006G12KT 10SM OVC055 12/02 A3006 RMK A01
KGCY 090655Z AUTO 18006KT 10SM OVC055 12/03 A3007 RMK A01
KGCY 090635Z AUTO 18007KT 100V200 10SM OVC060 12/02 A3007 RMK A01
KGCY 090615Z AUTO VRB05G10KT 10SM OVC060 12/02 A3008 RMK A01
KGCY 090555Z AUTO 19004G12KT 10SM OVC055 12/01 A3009 RMK A01
KGCY 090535Z AUTO 16008KT 130V190 10SM OVC060 11/01 A3009 RMK A01
KGCY 090515Z AUTO 19004KT 10SM BKN060 OVC070 11/01 A3010 RMK A01
KGCY 090455Z AUTO VRB04KT 10SM BKN060 OVC090 11/01 A3011 RMK A01
KGCY 090435Z AUTO 18006G12KT 10SM SCT065 BKN075 OVC085 11/01 A3010 RMK A01
KGCY 090415Z AUTO VRB05G10KT 10SM SCT080 SCT120 11/01 A3011 RMK A01
KGCY 090355Z AUTO VRB04KT 10SM FEW065 SCT075 SCT085 11/01 A3010 RMK A01
KGCY 090335Z AUTO VRB04G10KT 10SM OVC080 11/00 A3011 RMK A01
KGCY 090315Z AUTO VRB04KT 10SM FEW065 OVC080 11/00 A3012 RMK A01
KGCY 090255Z AUTO 19006KT 10SM FEW060 OVC080 11/M00 A3013 RMK A01
KGCY 090235Z AUTO 21004KT 10SM FEW060 OVC075 11/00 A3014 RMK A01
KGCY 090215Z AUTO 00000KT 10SM SCT065 OVC075 10/00 A3013 RMK A01
KGCY 090155Z AUTO VRB04KT 10SM SCT065 OVC075 10/M00 A3014 RMK A01
KGCY 090135Z AUTO 00000KT 10SM OVC075 10/M00 A3013 RMK A01
KGCY 090115Z AUTO 00000KT 10SM BKN070 10/M01 A3014 RMK A01
KGCY 090055Z AUTO 00000KT 10SM BKN070 10/M00 A3014 RMK A01
KGCY 090035Z AUTO 00000KT 10SM BKN070 10/M00 A3014 RMK A01
KGCY 090015Z AUTO 16004KT 10SM BKN060 10/M00 A3015 RMK A01
KGCY 082355Z AUTO 17004G11KT 10SM BKN055 10/M00 A3016 RMK A01
KGCY 082335Z AUTO 16005KT 10SM CLR 10/00 A3016 RMK A01
KGCY 082315Z AUTO VRB05G10KT 10SM FEW055 11/00 A3016 RMK A01
KGCY 082255Z AUTO 18007KT 10SM SCT060 11/00 A3016 RMK A01
KGCY 082235Z AUTO 17007KT 140V210 10SM FEW060 11/01 A3015 RMK A01
KGCY 082215Z AUTO 17005G10KT 10SM FEW060 12/01 A3014 RMK A01
KGCY 082155Z AUTO 17003KT 10SM SCT060 12/02 A3016 RMK A01
KGCY 082135Z AUTO VRB04KT 10SM CLR 13/01 A3016 RMK A01
KGCY 082115Z AUTO 17004KT 10SM CLR 13/02 A3016 RMK A01
KGCY 082055Z AUTO 17007G13KT 10SM CLR 14/02 A3016 RMK A01
KGCY 082035Z AUTO 17006KT 10SM CLR 14/02 A3016 RMK A01
KGCY 082015Z AUTO 16006G12KT 10SM CLR 14/02 A3017 RMK A01
KGCY 081955Z AUTO VRB06KT 10SM CLR 14/02 A3018 RMK A01
KGCY 081935Z AUTO VRB04KT 10SM CLR 15/02 A3018 RMK A01
KGCY 081915Z AUTO VRB04KT 10SM CLR 14/02 A3019 RMK A01
KGCY 081855Z AUTO 21007KT 180V240 10SM CLR 14/02 A3020 RMK A01
KGCY 081835Z AUTO VRB06G12KT 10SM CLR 14/02 A3020 RMK A01
KGCY 081815Z AUTO VRB04G12KT 10SM CLR 13/02 A3021 RMK A01
KGCY 081755Z AUTO 17007G13KT 140V200 10SM CLR 13/02 A3023 RMK A01
KGCY 081735Z AUTO 14006KT 10SM CLR 12/01 A3024 RMK A01
KGCY 081715Z AUTO 20008G15KT 160V220 10SM CLR 13/02 A3025 RMK A01
KGCY 081655Z AUTO VRB06G14KT 10SM CLR 12/02 A3027 RMK A01
KGCY 081635Z AUTO VRB06G11KT 10SM CLR 12/02 A3028 RMK A01
KGCY 081615Z AUTO VRB06KT 10SM CLR 12/02 A3029 RMK A01
KGCY 081555Z AUTO VRB03KT 10SM CLR 11/02 A3029 RMK A01
KGCY 081535Z AUTO VRB03KT 10SM CLR 11/02 A3030 RMK A01
KGCY 081515Z AUTO VRB05G12KT 10SM CLR 10/02 A3030 RMK A01
KGCY 081455Z AUTO 14007KT 120V210 10SM CLR 10/02 A3029 RMK A01
KGCY 081435Z AUTO VRB04G11KT 10SM CLR 10/02 A3029 RMK A01
KGCY 081415Z AUTO 19007G13KT 160V280 10SM CLR 09/02 A3029 RMK A01
KGCY 081355Z AUTO VRB04KT 10SM CLR 08/02 A3027 RMK A01
KGCY 081335Z AUTO VRB04G12KT 10SM CLR 08/02 A3028 RMK A01
KGCY 081315Z AUTO VRB04KT 10SM CLR 07/02 A3027 RMK A01
KGCY 081255Z AUTO 00000KT 10SM CLR 06/02 A3027 RMK A01
KGCY 081235Z AUTO 00000KT 10SM CLR 06/02 A3027 RMK A01
KGCY 081215Z AUTO 15003G10KT 10SM CLR 07/02 A3027 RMK A01
KGCY 081155Z AUTO VRB06KT 10SM CLR 07/02 A3028 RMK A01
KGCY 081135Z AUTO VRB05G14KT 10SM CLR 07/02 A3028 RMK A01
KGCY 081115Z AUTO 00000KT 10SM CLR 05/02 A3028 RMK A01
KGCY 081055Z AUTO 00000KT 10SM CLR 04/02 A3028 RMK A01
KGCY 081035Z AUTO 00000KT 10SM CLR 04/01 A3028 RMK A01
KGCY 081015Z AUTO VRB04KT 10SM CLR 06/02 A3028 RMK A01
KGCY 080955Z AUTO VRB04KT 10SM CLR 06/02 A3028 RMK A01
KGCY 080935Z AUTO 00000KT 10SM CLR 06/02 A3028 RMK A01
KGCY 080915Z AUTO 00000KT 10SM CLR 06/02 A3028 RMK A01
KGCY 080855Z AUTO 13003KT 10SM CLR 07/02 A3028 RMK A01
KGCY 080835Z AUTO 13003KT 10SM CLR 06/02 A3028 RMK A01
KGCY 080815Z AUTO 00000KT 10SM CLR 06/02 A3028 RMK A01
KGCY 080755Z AUTO VRB03KT 10SM CLR 07/02 A3028 RMK A01
KGCY 080735Z AUTO 00000KT 10SM CLR 06/02 A3028 RMK A01
KGCY 080715Z AUTO 00000KT 10SM CLR 07/02 A3027 RMK A01
KGCY 080655Z AUTO 00000KT 10SM CLR 07/02 A3027 RMK A01
KGCY 080635Z AUTO 15004KT 10SM CLR 07/02 A3027 RMK A01
KGCY 080615Z AUTO 00000KT 10SM CLR 06/02 A3026 RMK A01
KGCY 080555Z AUTO 00000KT 10SM CLR 07/02 A3027 RMK A01
KGCY 080535Z AUTO 00000KT 10SM CLR 06/02 A3026 RMK A01
KGCY 080515Z AUTO 15003KT 10SM CLR 06/02 A3027 RMK A01
KGCY 080455Z AUTO 00000KT 10SM CLR 06/02 A3027 RMK A01
KGCY 080435Z AUTO 00000KT 10SM CLR 05/02 A3027 RMK A01
KGCY 080415Z AUTO 00000KT 10SM CLR 05/02 A3028 RMK A01
KGCY 080355Z AUTO 00000KT 10SM CLR 04/02 A3028 RMK A01
KGCY 080335Z AUTO 00000KT 10SM CLR 06/02 A3028 RMK A01
KGCY 080315Z AUTO 00000KT 10SM CLR 06/02 A3028 RMK A01
KGCY 080255Z AUTO VRB03KT 10SM CLR 08/02 A3027 RMK A01
KGCY 080235Z AUTO 07006KT 10SM CLR 09/02 A3027 RMK A01
KGCY 080215Z AUTO VRB05G10KT 10SM CLR 09/02 A3027 RMK A01
KGCY 080155Z AUTO 09004G10KT 10SM CLR 08/02 A3028 RMK A01
KGCY 080135Z AUTO 10005KT 10SM CLR 08/02 A3028 RMK A01
KGCY 080115Z AUTO 11005KT 10SM CLR 07/02 A3028 RMK A01